Time;durP1;ratioP1;P1;durP2;ratioP2;P2;SDS_P1;SDS_P2;PMS_P1;PMS_P2;Temp;Humidity;BMP_temperature;BMP_pressure;BME280_temperature;BME280_humidity;BME280_pressure;Samples;Min_cycle;Max_cycle;Signal;HPM_P1;HPM_P2
2023/12/01 00:01:31;;;;;;;3.90;2.73;;;;;0.10;92221.00;;;;7384015;19;20225;-75
2023/12/01 00:04:11;;;;;;;6.73;4.43;;;;;0.10;92219.00;;;;7387191;19;20160;-74
2023/12/01 00:06:52;;;;;;;3.90;3.03;;;;;0.10;92218.00;;;;7387027;19;20135;-73
2023/12/01 00:09:27;;;;;;;3.00;2.30;;;;;0.10;92219.00;;;;7385954;19;20148;-72
2023/12/01 00:12:02;;;;;;;4.67;2.07;;;;;0.10;92220.00;;;;7386659;19;20136;-72
2023/12/01 00:14:30;;;;;;;5.57;2.80;;;;;0.00;92219.00;;;;7387222;19;20624;-74
2023/12/01 00:17:04;;;;;;;3.00;1.97;;;;;0.00;92227.00;;;;7386481;19;20598;-72
2023/12/01 00:19:40;;;;;;;3.93;2.80;;;;;0.10;92222.00;;;;7385280;19;20658;-72
2023/12/01 00:22:16;;;;;;;6.77;4.17;;;;;0.10;92220.00;;;;7387142;19;20139;-74
2023/12/01 00:24:46;;;;;;;5.60;3.60;;;;;0.10;92228.00;;;;7384874;19;20495;-73
2023/12/01 00:27:24;;;;;;;5.17;3.50;;;;;0.10;92236.00;;;;7387955;19;20143;-73
2023/12/01 00:29:58;;;;;;;5.67;3.47;;;;;0.10;92231.00;;;;7391021;19;20588;-72
2023/12/01 00:32:32;;;;;;;6.03;4.17;;;;;0.10;92228.00;;;;7391237;19;20195;-72
2023/12/01 00:35:00;;;;;;;5.77;4.03;;;;;0.10;92235.00;;;;7391354;19;20147;-75
2023/12/01 00:37:28;;;;;;;6.43;4.07;;;;;0.10;92235.00;;;;7392596;19;20584;-74
2023/12/01 00:40:03;;;;;;;5.40;3.77;;;;;0.10;92230.00;;;;7390933;19;20151;-74
2023/12/01 00:42:30;;;;;;;5.23;3.70;;;;;0.10;92228.00;;;;7391366;19;20153;-72
2023/12/01 00:45:05;;;;;;;6.67;4.20;;;;;0.10;92229.00;;;;7391688;19;20132;-74
2023/12/01 00:47:36;;;;;;;8.07;5.03;;;;;0.20;92239.00;;;;7390718;19;20492;-72
2023/12/01 00:50:10;;;;;;;7.37;4.87;;;;;0.10;92236.00;;;;7392355;19;20129;-73
2023/12/01 00:52:38;;;;;;;9.70;5.53;;;;;0.10;92222.00;;;;7390573;19;20148;-73
2023/12/01 00:55:12;;;;;;;7.40;5.80;;;;;0.10;92230.00;;;;7389575;19;20148;-73
2023/12/01 00:57:41;;;;;;;8.13;5.70;;;;;0.10;92234.00;;;;7390925;19;20148;-73
2023/12/01 01:00:22;;;;;;;9.73;5.80;;;;;0.10;92228.00;;;;7385593;19;20140;-74
2023/12/01 01:02:52;;;;;;;12.60;6.73;;;;;0.10;92225.00;;;;7384504;19;20625;-77
2023/12/01 01:05:33;;;;;;;222.23;14.97;;;;;0.20;92230.00;;;;7390638;19;20128;-78
2023/12/01 01:08:01;;;;;;;152.10;10.37;;;;;0.10;92218.00;;;;7390865;19;20688;-76
2023/12/01 01:10:37;;;;;;;294.93;15.77;;;;;0.10;92226.00;;;;7391137;19;20160;-74
2023/12/01 01:13:11;;;;;;;564.53;26.10;;;;;0.00;92218.00;;;;7391250;19;20227;-76
2023/12/01 01:15:39;;;;;;;487.20;27.07;;;;;0.00;92218.00;;;;7391590;19;20133;-73
2023/12/01 01:18:13;;;;;;;149.53;12.77;;;;;-0.10;92223.00;;;;7390611;19;20510;-76
2023/12/01 01:20:47;;;;;;;212.17;15.57;;;;;0.00;92235.00;;;;7391525;19;20151;-75
2023/12/01 01:23:22;;;;;;;68.57;9.43;;;;;0.00;92235.00;;;;7390700;19;20598;-76
2023/12/01 01:25:50;;;;;;;77.43;11.17;;;;;0.00;92236.00;;;;7391093;19;20604;-77
2023/12/01 01:28:25;;;;;;;276.73;17.20;;;;;-0.10;92246.00;;;;7390419;19;20188;-77
2023/12/01 01:30:53;;;;;;;155.60;11.53;;;;;-0.10;92246.00;;;;7391351;19;20540;-79
2023/12/01 01:33:21;;;;;;;126.70;11.00;;;;;-0.20;92244.00;;;;7390339;19;20145;-71
2023/12/01 01:35:55;;;;;;;259.60;15.93;;;;;-0.10;92249.00;;;;7390255;19;20522;-76
2023/12/01 01:38:22;;;;;;;73.17;9.17;;;;;-0.20;92251.00;;;;7389832;19;20208;-78
2023/12/01 01:40:57;;;;;;;49.03;10.20;;;;;-0.20;92245.00;;;;7389634;19;20206;-73
2023/12/01 01:43:25;;;;;;;14.20;7.83;;;;;-0.20;92234.00;;;;7392181;19;20180;-77
2023/12/01 01:46:08;;;;;;;13.90;8.93;;;;;-0.20;92251.00;;;;7390801;19;20592;-76
2023/12/01 01:48:36;;;;;;;17.50;8.70;;;;;-0.20;92263.00;;;;7390221;19;20128;-78
2023/12/01 01:51:10;;;;;;;34.73;10.23;;;;;-0.20;92259.00;;;;7391199;19;20611;-78
2023/12/01 01:53:41;;;;;;;31.50;10.70;;;;;-0.30;92255.00;;;;7391423;19;20129;-76
2023/12/01 01:56:15;;;;;;;74.60;13.33;;;;;-0.20;92254.00;;;;7390064;19;20149;-77
2023/12/01 01:58:43;;;;;;;40.37;11.33;;;;;-0.30;92263.00;;;;7389321;19;20125;-79
2023/12/01 02:01:11;;;;;;;61.13;11.70;;;;;-0.30;92263.00;;;;7386698;19;20157;-75
2023/12/01 02:03:59;;;;;;;26.10;11.60;;;;;-0.20;92255.00;;;;7390119;19;20160;-75
2023/12/01 02:06:34;;;;;;;23.30;12.67;;;;;-0.30;92257.00;;;;7389710;19;20129;-77
2023/12/01 02:09:08;;;;;;;22.77;13.77;;;;;-0.30;92252.00;;;;7390450;19;20159;-73
2023/12/01 02:11:42;;;;;;;20.33;14.40;;;;;-0.30;92261.00;;;;7389607;19;20197;-69
2023/12/01 02:14:17;;;;;;;19.53;13.57;;;;;-0.30;92252.00;;;;7388298;19;20623;-70
2023/12/01 02:16:56;;;;;;;19.20;12.87;;;;;-0.30;92257.00;;;;7387696;19;20152;-71
2023/12/01 02:19:30;;;;;;;21.23;14.10;;;;;-0.40;92269.00;;;;7388561;19;20141;-74
2023/12/01 02:22:01;;;;;;;21.30;14.03;;;;;-0.40;92273.00;;;;7388330;19;20152;-69
2023/12/01 02:24:29;;;;;;;18.20;13.33;;;;;-0.40;92260.00;;;;7388491;19;20659;-73
2023/12/01 02:27:03;;;;;;;21.77;14.70;;;;;-0.30;92257.00;;;;7387934;19;20148;-70
2023/12/01 02:29:30;;;;;;;23.37;15.53;;;;;-0.30;92252.00;;;;7389714;19;20139;-70
2023/12/01 02:32:07;;;;;;;26.40;16.60;;;;;-0.40;92254.00;;;;7388333;19;20485;-70
2023/12/01 02:34:45;;;;;;;26.37;16.47;;;;;-0.40;92246.00;;;;7387982;19;20136;-71
2023/12/01 02:37:19;;;;;;;26.23;16.07;;;;;-0.40;92241.00;;;;7388897;19;20131;-72
2023/12/01 02:39:50;;;;;;;23.47;15.23;;;;;-0.40;92263.00;;;;7388781;19;20133;-70
2023/12/01 02:42:18;;;;;;;21.97;13.63;;;;;-0.50;92272.00;;;;7388067;19;20616;-70
2023/12/01 02:44:52;;;;;;;23.83;14.80;;;;;-0.50;92280.00;;;;7387447;19;20168;-71
2023/12/01 02:47:26;;;;;;;22.60;14.07;;;;;-0.50;92288.00;;;;7389916;19;20143;-72
2023/12/01 02:50:00;;;;;;;19.27;13.73;;;;;-0.40;92281.00;;;;7387847;19;20144;-72
2023/12/01 02:52:38;;;;;;;18.90;12.77;;;;;-0.50;92267.00;;;;7388460;19;20135;-70
2023/12/01 02:55:07;;;;;;;16.80;11.17;;;;;-0.40;92250.00;;;;7388980;19;20129;-71
2023/12/01 02:57:43;;;;;;;16.23;11.33;;;;;-0.50;92258.00;;;;7387736;19;20148;-72
2023/12/01 03:00:14;;;;;;;20.10;13.73;;;;;-0.50;92253.00;;;;7386589;19;20152;-70
2023/12/01 03:02:51;;;;;;;21.10;13.93;;;;;-0.50;92254.00;;;;7388659;19;20589;-69
2023/12/01 03:05:26;;;;;;;23.47;15.43;;;;;-0.50;92255.00;;;;7388273;19;20487;-71
2023/12/01 03:08:04;;;;;;;25.33;17.07;;;;;-0.50;92266.00;;;;7388002;19;20133;-71
2023/12/01 03:10:38;;;;;;;27.13;16.90;;;;;-0.50;92274.00;;;;7386533;19;21935;-70
2023/12/01 03:13:12;;;;;;;26.63;17.37;;;;;-0.40;92275.00;;;;7386834;19;20579;-71
2023/12/01 03:15:49;;;;;;;28.10;18.43;;;;;-0.50;92274.00;;;;7386185;19;20168;-70
2023/12/01 03:18:20;;;;;;;29.27;18.20;;;;;-0.50;92278.00;;;;7386577;19;20481;-73
2023/12/01 03:20:54;;;;;;;29.67;17.50;;;;;-0.50;92257.00;;;;7387426;19;20139;-78
2023/12/01 03:23:21;;;;;;;30.93;19.33;;;;;-0.50;92256.00;;;;7386815;19;20164;-76
2023/12/01 03:25:55;;;;;;;28.40;18.13;;;;;-0.50;92250.00;;;;7387775;19;20155;-75
2023/12/01 03:28:31;;;;;;;27.03;17.63;;;;;-0.50;92256.00;;;;7386698;19;20175;-74
2023/12/01 03:31:05;;;;;;;29.00;18.80;;;;;-0.40;92259.00;;;;7386807;19;20159;-74
2023/12/01 03:33:34;;;;;;;34.23;21.97;;;;;-0.50;92254.00;;;;7386295;19;20133;-74
2023/12/01 03:36:10;;;;;;;34.47;19.93;;;;;-0.40;92258.00;;;;7386175;19;20153;-74
2023/12/01 03:38:38;;;;;;;29.93;18.57;;;;;-0.50;92249.00;;;;7386274;19;20192;-75
2023/12/01 03:41:12;;;;;;;30.20;18.23;;;;;-0.40;92272.00;;;;7385902;19;20152;-76
2023/12/01 03:43:46;;;;;;;29.93;18.73;;;;;-0.50;92261.00;;;;7381082;19;20149;-74
2023/12/01 03:46:20;;;;;;;28.37;18.13;;;;;-0.50;92261.00;;;;7384391;19;20172;-74
2023/12/01 03:48:54;;;;;;;28.33;18.20;;;;;-0.50;92258.00;;;;7386593;19;20131;-76
2023/12/01 03:51:29;;;;;;;30.17;18.60;;;;;-0.50;92263.00;;;;7386700;19;20188;-76
2023/12/01 03:53:58;;;;;;;28.50;17.93;;;;;-0.50;92258.00;;;;7386166;19;20625;-74
2023/12/01 03:56:36;;;;;;;28.53;18.73;;;;;-0.50;92267.00;;;;7385974;19;20131;-76
2023/12/01 03:59:11;;;;;;;29.47;18.17;;;;;-0.50;92265.00;;;;7386091;19;20125;-75
2023/12/01 04:01:40;;;;;;;32.03;20.00;;;;;-0.50;92258.00;;;;7383095;19;20145;-74
2023/12/01 04:04:15;;;;;;;28.53;18.30;;;;;-0.50;92264.00;;;;7384681;19;20152;-74
2023/12/01 04:06:49;;;;;;;24.57;16.70;;;;;-0.50;92256.00;;;;7387394;19;20132;-74
2023/12/01 04:09:23;;;;;;;25.47;16.47;;;;;-0.50;92259.00;;;;7384662;19;20219;-75
2023/12/01 04:11:54;;;;;;;24.70;16.07;;;;;-0.50;92263.00;;;;7385412;19;20149;-75
2023/12/01 04:14:29;;;;;;;21.20;14.27;;;;;-0.50;92251.00;;;;7386201;19;20139;-76
2023/12/01 04:17:08;;;;;;;26.13;16.00;;;;;-0.40;92252.00;;;;7384909;19;20133;-74
2023/12/01 04:19:43;;;;;;;24.20;14.80;;;;;-0.40;92263.00;;;;7384767;19;20217;-76
2023/12/01 04:22:18;;;;;;;19.73;13.47;;;;;-0.50;92252.00;;;;7384840;19;20142;-74
2023/12/01 04:24:52;;;;;;;19.83;13.80;;;;;-0.40;92263.00;;;;7386085;19;20139;-74
2023/12/01 04:27:23;;;;;;;20.77;13.03;;;;;-0.40;92252.00;;;;7384462;19;20511;-75
2023/12/01 04:29:58;;;;;;;18.23;12.90;;;;;-0.50;92249.00;;;;7385694;19;20147;-74
2023/12/01 04:32:26;;;;;;;15.87;11.07;;;;;-0.40;92267.00;;;;7385565;19;20133;-75
2023/12/01 04:35:01;;;;;;;18.60;12.13;;;;;-0.50;92271.00;;;;7387113;19;20128;-76
2023/12/01 04:37:35;;;;;;;15.20;10.63;;;;;-0.40;92272.00;;;;7387464;19;20596;-74
2023/12/01 04:40:16;;;;;;;16.27;11.53;;;;;-0.50;92273.00;;;;7387651;19;20216;-76
2023/12/01 04:42:54;;;;;;;16.07;10.73;;;;;-0.40;92265.00;;;;7390388;19;20152;-75
2023/12/01 04:45:26;;;;;;;11.47;9.10;;;;;-0.40;92264.00;;;;7391787;19;20600;-76
2023/12/01 04:48:01;;;;;;;13.63;10.27;;;;;-0.50;92266.00;;;;7389268;19;20151;-77
2023/12/01 04:50:30;;;;;;;12.37;9.40;;;;;-0.50;92256.00;;;;7387750;19;20644;-77
2023/12/01 04:52:58;;;;;;;14.03;10.13;;;;;-0.40;92246.00;;;;7389604;19;20129;-77
2023/12/01 04:55:32;;;;;;;13.60;9.43;;;;;-0.40;92242.00;;;;7388223;19;20214;-76
2023/12/01 04:58:00;;;;;;;15.13;11.13;;;;;-0.50;92251.00;;;;7385955;19;20135;-76
2023/12/01 05:00:35;;;;;;;12.63;9.40;;;;;-0.50;92250.00;;;;7386891;19;20624;-78
2023/12/01 05:03:05;;;;;;;14.10;9.70;;;;;-0.50;92261.00;;;;7381360;19;20212;-75
2023/12/01 05:05:46;;;;;;;12.50;9.37;;;;;-0.50;92263.00;;;;7386153;19;20153;-78
2023/12/01 05:08:21;;;;;;;14.63;10.27;;;;;-0.50;92264.00;;;;7385026;19;20159;-75
2023/12/01 05:10:56;;;;;;;14.83;10.87;;;;;-0.50;92269.00;;;;7384525;19;20180;-76
2023/12/01 05:13:23;;;;;;;14.40;10.83;;;;;-0.60;92271.00;;;;7383440;19;20180;-77
2023/12/01 05:15:58;;;;;;;14.00;9.87;;;;;-0.60;92262.00;;;;7389011;19;20133;-75
2023/12/01 05:18:25;;;;;;;13.17;9.77;;;;;-0.60;92272.00;;;;7390183;19;20149;-76
2023/12/01 05:21:00;;;;;;;14.80;10.43;;;;;-0.50;92277.00;;;;7392369;19;20588;-75
2023/12/01 05:23:27;;;;;;;13.33;10.07;;;;;-0.50;92285.00;;;;7390178;19;20153;-76
2023/12/01 05:26:04;;;;;;;13.60;10.20;;;;;-0.50;92294.00;;;;7389719;19;20140;-75
2023/12/01 05:28:31;;;;;;;14.43;10.40;;;;;-0.50;92290.00;;;;7390088;19;20139;-76
2023/12/01 05:31:08;;;;;;;13.17;9.87;;;;;-0.50;92294.00;;;;7391102;19;20147;-77
2023/12/01 05:33:38;;;;;;;14.00;10.20;;;;;-0.50;92287.00;;;;7390518;19;20668;-75
2023/12/01 05:36:24;;;;;;;13.77;9.90;;;;;-0.50;92303.00;;;;7391242;19;20592;-75
2023/12/01 05:38:59;;;;;;;12.23;9.67;;;;;-0.50;92299.00;;;;7390781;19;20614;-75
2023/12/01 05:41:33;;;;;;;12.37;9.40;;;;;-0.50;92295.00;;;;7394914;19;20156;-77
2023/12/01 05:44:03;;;;;;;13.50;10.03;;;;;-0.50;92295.00;;;;7387830;19;20149;-76
2023/12/01 05:46:31;;;;;;;14.13;10.43;;;;;-0.50;92296.00;;;;7388756;19;20212;-77
2023/12/01 05:49:09;;;;;;;14.20;10.20;;;;;-0.50;92291.00;;;;7389214;19;20140;-75
2023/12/01 05:51:44;;;;;;;12.97;10.00;;;;;-0.50;92295.00;;;;7389009;19;20220;-75
2023/12/01 05:54:18;;;;;;;12.93;9.73;;;;;-0.50;92294.00;;;;7387189;19;20204;-76
2023/12/01 05:56:52;;;;;;;13.87;10.33;;;;;-0.50;92284.00;;;;7388634;19;20157;-75
2023/12/01 05:59:19;;;;;;;13.77;9.80;;;;;-0.60;92291.00;;;;7387970;19;20125;-77
2023/12/01 06:01:54;;;;;;;13.17;9.60;;;;;-0.60;92287.00;;;;7388150;19;20132;-77
2023/12/01 06:04:36;;;;;;;10.60;8.53;;;;;-0.60;92307.00;;;;7386755;19;20176;-77
2023/12/01 06:07:14;;;;;;;10.03;7.93;;;;;-0.60;92316.00;;;;7389355;19;20129;-76
2023/12/01 06:09:51;;;;;;;9.23;7.10;;;;;-0.60;92313.00;;;;7388897;19;20153;-77
2023/12/01 06:12:27;;;;;;;10.30;7.93;;;;;-0.50;92326.00;;;;7389170;19;20191;-78
2023/12/01 06:15:01;;;;;;;8.87;6.70;;;;;-0.70;92321.00;;;;7390055;19;20184;-77
2023/12/01 06:17:30;;;;;;;8.17;6.37;;;;;-0.60;92331.00;;;;7389079;19;20632;-78
2023/12/01 06:20:16;;;;;;;9.17;6.63;;;;;-0.60;92324.00;;;;7386642;19;20160;-76
2023/12/01 06:22:57;;;;;;;7.93;5.93;;;;;-0.60;92339.00;;;;7386101;19;20239;-75
2023/12/01 06:25:33;;;;;;;8.60;6.53;;;;;-0.60;92330.00;;;;7384207;19;20140;-75
2023/12/01 06:28:08;;;;;;;9.00;7.13;;;;;-0.60;92325.00;;;;7384787;19;20156;-76
2023/12/01 06:30:44;;;;;;;7.47;5.93;;;;;-0.60;92313.00;;;;7388512;19;20622;-78
2023/12/01 06:33:12;;;;;;;7.23;5.80;;;;;-0.60;92328.00;;;;7389333;19;20129;-76
2023/12/01 06:35:53;;;;;;;11.23;8.83;;;;;-0.70;92336.00;;;;7388960;19;20132;-77
2023/12/01 06:38:23;;;;;;;10.33;7.10;;;;;-0.60;92343.00;;;;7390839;19;20125;-75
2023/12/01 06:40:57;;;;;;;10.37;8.10;;;;;-0.60;92339.00;;;;7390311;19;20136;-77
2023/12/01 06:43:25;;;;;;;9.00;7.30;;;;;-0.70;92353.00;;;;7388826;19;20599;-76
2023/12/01 06:46:00;;;;;;;8.03;6.57;;;;;-0.70;92363.00;;;;7391228;19;20133;-74
2023/12/01 06:48:34;;;;;;;9.17;6.77;;;;;-0.60;92363.00;;;;7389401;19;20478;-75
2023/12/01 06:51:07;;;;;;;7.40;6.37;;;;;-0.70;92353.00;;;;7388261;19;20170;-73
2023/12/01 06:53:44;;;;;;;8.13;6.40;;;;;-0.60;92363.00;;;;7389284;19;20251;-75
2023/12/01 06:56:20;;;;;;;7.33;5.90;;;;;-0.70;92360.00;;;;7390613;19;20627;-75
2023/12/01 06:58:55;;;;;;;7.90;6.23;;;;;-0.60;92370.00;;;;7388398;19;20136;-74
2023/12/01 07:01:30;;;;;;;9.07;6.80;;;;;-0.70;92358.00;;;;7385239;19;20144;-76
2023/12/01 07:04:07;;;;;;;8.40;6.60;;;;;-0.70;92357.00;;;;7388091;19;20171;-76
2023/12/01 07:06:49;;;;;;;8.73;7.07;;;;;-0.60;92360.00;;;;7388887;19;20174;-75
2023/12/01 07:09:17;;;;;;;9.23;7.57;;;;;-0.60;92373.00;;;;7388050;19;20630;-77
2023/12/01 07:11:51;;;;;;;9.63;6.83;;;;;-0.60;92362.00;;;;7387614;19;20156;-75
2023/12/01 07:14:23;;;;;;;8.50;6.47;;;;;-0.60;92372.00;;;;7388549;19;20619;-77
2023/12/01 07:17:00;;;;;;;10.10;7.20;;;;;-0.60;92366.00;;;;7387422;19;20144;-77
2023/12/01 07:19:40;;;;;;;10.57;7.47;;;;;-0.50;92376.00;;;;7387068;19;20149;-74
2023/12/01 07:22:08;;;;;;;9.63;7.57;;;;;-0.60;92376.00;;;;7385498;19;20163;-75
2023/12/01 07:24:42;;;;;;;8.60;6.77;;;;;-0.60;92369.00;;;;7385573;19;20140;-77
2023/12/01 07:27:10;;;;;;;9.93;7.60;;;;;-0.70;92364.00;;;;7386848;19;20149;-75
2023/12/01 07:29:44;;;;;;;9.53;7.00;;;;;-0.60;92348.00;;;;7387113;19;20125;-76
2023/12/01 07:32:18;;;;;;;11.03;7.93;;;;;-0.70;92348.00;;;;7385649;19;20148;-76
2023/12/01 07:34:52;;;;;;;11.30;8.20;;;;;-0.60;92356.00;;;;7385741;19;20508;-78
2023/12/01 07:37:26;;;;;;;11.07;7.53;;;;;-0.60;92356.00;;;;7383745;19;20169;-76
2023/12/01 07:39:54;;;;;;;10.30;8.07;;;;;-0.70;92368.00;;;;7385669;19;20148;-77
2023/12/01 07:42:28;;;;;;;10.10;7.53;;;;;-0.60;92371.00;;;;7386860;19;20128;-76
2023/12/01 07:44:59;;;;;;;11.07;8.17;;;;;-0.70;92378.00;;;;7387083;19;20160;-75
2023/12/01 07:47:27;;;;;;;13.13;9.03;;;;;-0.60;92388.00;;;;7388299;19;20472;-75
2023/12/01 07:50:05;;;;;;;10.60;7.23;;;;;-0.60;92389.00;;;;7386421;19;20133;-79
2023/12/01 07:52:40;;;;;;;10.17;7.37;;;;;-0.60;92387.00;;;;7384865;19;20148;-78
2023/12/01 07:55:10;;;;;;;11.40;7.97;;;;;-0.50;92393.00;;;;7385650;19;20185;-76
2023/12/01 07:57:59;;;;;;;13.53;8.40;;;;;-0.40;92382.00;;;;7385262;19;20217;-75
2023/12/01 08:00:40;;;;;;;11.77;7.47;;;;;-0.40;92376.00;;;;7379442;19;20498;-75
2023/12/01 08:03:09;;;;;;;11.40;8.03;;;;;-0.30;92369.00;;;;7387818;19;20135;-71
2023/12/01 08:05:50;;;;;;;11.13;7.90;;;;;-0.30;92375.00;;;;7386833;19;20172;-72
2023/12/01 08:08:17;;;;;;;11.37;7.73;;;;;-0.40;92385.00;;;;7385971;19;20595;-71
2023/12/01 08:10:51;;;;;;;12.40;9.27;;;;;-0.30;92374.00;;;;7385898;19;24559;-72
2023/12/01 08:13:22;;;;;;;14.07;8.87;;;;;-0.20;92388.00;;;;7382562;19;20189;-72
2023/12/01 08:15:56;;;;;;;11.67;8.77;;;;;-0.20;92391.00;;;;7386113;19;20561;-73
2023/12/01 08:18:31;;;;;;;14.93;9.10;;;;;-0.20;92383.00;;;;7385465;19;20164;-73
2023/12/01 08:21:06;;;;;;;12.73;8.13;;;;;-0.10;92400.00;;;;7387631;19;20168;-74
2023/12/01 08:23:41;;;;;;;12.43;8.60;;;;;0.00;92392.00;;;;7385416;19;20128;-73
2023/12/01 08:26:16;;;;;;;12.60;8.83;;;;;0.00;92395.00;;;;7384707;19;20207;-72
2023/12/01 08:28:50;;;;;;;11.77;8.47;;;;;0.10;92387.00;;;;7384451;19;20144;-72
2023/12/01 08:31:25;;;;;;;10.30;7.30;;;;;0.10;92377.00;;;;7387701;19;20870;-74
2023/12/01 08:33:52;;;;;;;10.17;6.60;;;;;0.20;92385.00;;;;7384678;19;20176;-73
2023/12/01 08:36:27;;;;;;;8.43;6.27;;;;;0.10;92393.00;;;;7383654;19;20168;-73
2023/12/01 08:39:02;;;;;;;9.20;6.63;;;;;0.20;92373.00;;;;7383978;19;20212;-72
2023/12/01 08:41:33;;;;;;;11.37;8.43;;;;;0.30;92369.00;;;;7385068;19;20587;-70
2023/12/01 08:44:08;;;;;;;13.37;8.10;;;;;0.30;92367.00;;;;7381389;19;20204;-71
2023/12/01 08:46:35;;;;;;;11.57;7.73;;;;;0.30;92375.00;;;;7383035;19;20140;-73
2023/12/01 08:49:11;;;;;;;13.23;7.67;;;;;0.30;92387.00;;;;7388700;19;20140;-71
2023/12/01 08:51:39;;;;;;;23.43;7.93;;;;;0.40;92390.00;;;;7389588;19;20599;-72
2023/12/01 08:54:14;;;;;;;13.00;7.80;;;;;0.40;92385.00;;;;7389896;19;20491;-72
2023/12/01 08:56:49;;;;;;;10.63;6.90;;;;;0.50;92373.00;;;;7389284;19;20136;-71
2023/12/01 08:59:27;;;;;;;27.87;9.30;;;;;0.50;92375.00;;;;7390793;19;20657;-71
2023/12/01 09:02:01;;;;;;;31.83;8.23;;;;;0.50;92386.00;;;;7390952;19;20608;-70
2023/12/01 09:04:30;;;;;;;36.33;10.40;;;;;0.50;92368.00;;;;7387169;19;20203;-71
2023/12/01 09:07:09;;;;;;;52.07;11.33;;;;;0.50;92378.00;;;;7391910;19;20140;-71
2023/12/01 09:09:37;;;;;;;20.13;10.87;;;;;0.70;92387.00;;;;7391881;19;20132;-71
2023/12/01 09:12:10;;;;;;;8.50;6.00;;;;;0.60;92395.00;;;;7392037;19;20132;-73
2023/12/01 09:14:45;;;;;;;47.50;8.00;;;;;0.60;92394.00;;;;7389889;19;20224;-71
2023/12/01 09:17:19;;;;;;;9.30;7.07;;;;;0.60;92403.00;;;;7391781;19;20136;-70
2023/12/01 09:19:47;;;;;;;38.90;8.57;;;;;0.60;92388.00;;;;7392457;19;20166;-72
2023/12/01 09:22:22;;;;;;;41.17;7.80;;;;;0.50;92396.00;;;;7390630;19;20153;-73
2023/12/01 09:24:57;;;;;;;97.47;10.67;;;;;0.60;92392.00;;;;7390690;19;20231;-72
2023/12/01 09:27:34;;;;;;;56.20;7.37;;;;;0.50;92404.00;;;;7392059;19;20491;-70
2023/12/01 09:30:16;;;;;;;42.97;9.80;;;;;0.50;92395.00;;;;7392001;19;20140;-71
2023/12/01 09:32:45;;;;;;;58.97;8.83;;;;;0.60;92401.00;;;;7391652;19;20675;-70
2023/12/01 09:35:25;;;;;;;151.83;12.03;;;;;0.60;92395.00;;;;7389553;19;20152;-72
2023/12/01 09:38:13;;;;;;;21.73;6.77;;;;;0.80;92395.00;;;;7391685;19;20152;-71
2023/12/01 09:40:49;;;;;;;61.60;9.40;;;;;0.70;92396.00;;;;7391075;19;20133;-71
2023/12/01 09:43:19;;;;;;;229.77;15.03;;;;;0.50;92404.00;;;;7389894;19;20196;-70
2023/12/01 09:45:53;;;;;;;95.87;9.33;;;;;0.50;92414.00;;;;7388717;19;20153;-72
2023/12/01 09:48:22;;;;;;;384.07;21.47;;;;;0.40;92402.00;;;;7390161;19;20133;-69
2023/12/01 09:50:57;;;;;;;27.33;6.50;;;;;0.60;92392.00;;;;7388762;19;20592;-71
2023/12/01 09:53:32;;;;;;;60.77;5.87;;;;;0.50;92394.00;;;;7387091;19;20159;-72
2023/12/01 09:56:06;;;;;;;22.57;5.40;;;;;0.70;92395.00;;;;7386641;19;21129;-73
2023/12/01 09:58:35;;;;;;;96.27;9.70;;;;;0.70;92402.00;;;;7386720;19;20148;-72
2023/12/01 10:01:13;;;;;;;118.40;11.00;;;;;0.60;92395.00;;;;7385125;19;20155;-70
2023/12/01 10:03:40;;;;;;;262.27;14.63;;;;;0.50;92391.00;;;;7388910;19;20132;-74
2023/12/01 10:06:21;;;;;;;179.03;10.30;;;;;0.40;92398.00;;;;7388500;19;20599;-71
2023/12/01 10:08:49;;;;;;;920.87;33.10;;;;;0.50;92413.00;;;;7386959;19;20151;-70
2023/12/01 10:11:25;;;;;;;223.73;12.20;;;;;0.30;92391.00;;;;7384150;19;20152;-74
2023/12/01 10:13:54;;;;;;;175.10;10.23;;;;;0.40;92406.00;;;;7386450;19;20173;-71
2023/12/01 10:16:38;;;;;;;316.90;26.17;;;;;0.30;92383.00;;;;7388921;19;20532;-74
2023/12/01 10:19:07;;;;;;;118.13;18.50;;;;;0.30;92375.00;;;;7387156;19;20151;-73
2023/12/01 10:21:45;;;;;;;389.57;19.90;;;;;0.30;92383.00;;;;7387235;19;20188;-75
2023/12/01 10:24:22;;;;;;;165.23;10.33;;;;;0.40;92382.00;;;;7388137;19;20218;-76
2023/12/01 10:27:02;;;;;;;369.47;19.77;;;;;0.20;92384.00;;;;7386329;19;20645;-74
2023/12/01 10:29:35;;;;;;;280.70;13.23;;;;;0.30;92376.00;;;;7387893;19;20164;-74
2023/12/01 10:32:11;;;;;;;202.63;13.23;;;;;0.40;92372.00;;;;7385737;19;20173;-72
2023/12/01 10:34:52;;;;;;;219.53;15.80;;;;;0.40;92360.00;;;;7388413;19;20129;-75
2023/12/01 10:37:26;;;;;;;602.47;29.90;;;;;0.40;92370.00;;;;7385508;19;20149;-73
2023/12/01 10:40:05;;;;;;;393.03;22.73;;;;;0.40;92358.00;;;;7387805;19;20129;-74
2023/12/01 10:42:45;;;;;;;620.50;34.63;;;;;0.50;92365.00;;;;7386192;19;20148;-76
2023/12/01 10:45:14;;;;;;;489.30;24.13;;;;;0.50;92371.00;;;;7386727;19;20129;-75
2023/12/01 10:47:53;;;;;;;447.00;23.83;;;;;0.40;92369.00;;;;7385422;19;20148;-75
2023/12/01 10:50:22;;;;;;;902.93;38.03;;;;;0.50;92373.00;;;;7387157;19;20667;-74
2023/12/01 10:52:59;;;;;;;318.43;24.33;;;;;0.30;92362.00;;;;7386136;19;20622;-75
2023/12/01 10:55:28;;;;;;;374.90;18.07;;;;;0.50;92357.00;;;;7385148;19;20141;-74
2023/12/01 10:58:06;;;;;;;264.23;17.27;;;;;0.40;92372.00;;;;7387768;19;23252;-74
2023/12/01 11:00:34;;;;;;;403.80;23.00;;;;;0.40;92374.00;;;;7385500;19;20160;-75
2023/12/01 11:03:11;;;;;;;403.93;19.00;;;;;0.50;92351.00;;;;7387316;19;20162;-74
2023/12/01 11:05:47;;;;;;;447.73;18.53;;;;;0.60;92359.00;;;;7386065;19;20616;-74
2023/12/01 11:08:32;;;;;;;247.53;14.57;;;;;0.50;92354.00;;;;7383427;19;20136;-75
2023/12/01 11:11:16;;;;;;;251.70;16.47;;;;;0.60;92339.00;;;;7384373;19;20488;-75
2023/12/01 11:13:57;;;;;;;99.40;9.00;;;;;0.50;92344.00;;;;7383178;19;20200;-73
2023/12/01 11:16:33;;;;;;;155.07;10.00;;;;;0.70;92356.00;;;;7385868;19;20584;-76
2023/12/01 11:19:00;;;;;;;84.23;7.33;;;;;0.80;92348.00;;;;7386824;19;20132;-74
2023/12/01 11:21:35;;;;;;;75.43;8.93;;;;;0.60;92347.00;;;;7385678;19;20132;-74
2023/12/01 11:24:26;;;;;;;98.10;6.97;;;;;0.40;92360.00;;;;7386204;19;20133;-74
2023/12/01 11:27:07;;;;;;;105.13;8.53;;;;;0.40;92361.00;;;;7385621;19;20465;-75
2023/12/01 11:30:06;;;;;;;128.27;9.77;;;;;0.20;92350.00;;;;7386191;19;20758;-75
2023/12/01 11:32:43;;;;;;;99.63;9.40;;;;;0.30;92346.00;;;;7384933;19;20149;-73
2023/12/01 11:35:17;;;;;;;127.00;10.53;;;;;0.20;92347.00;;;;7385456;19;20223;-76
2023/12/01 11:38:03;;;;;;;110.57;8.93;;;;;0.20;92342.00;;;;7383934;19;20507;-76
2023/12/01 11:40:43;;;;;;;148.53;10.77;;;;;0.00;92330.00;;;;7385565;19;20135;-76
2023/12/01 11:43:18;;;;;;;152.43;14.10;;;;;0.20;92325.00;;;;7385612;19;20610;-76
2023/12/01 11:46:09;;;;;;;406.47;19.47;;;;;0.20;92340.00;;;;7383194;19;20157;-77
2023/12/01 11:48:37;;;;;;;161.23;12.13;;;;;0.30;92356.00;;;;7385943;19;20140;-77
2023/12/01 11:51:11;;;;;;;392.70;22.43;;;;;0.30;92352.00;;;;7384487;19;20647;-75
2023/12/01 11:53:39;;;;;;;280.70;15.83;;;;;0.10;92359.00;;;;7386009;19;20827;-77
2023/12/01 11:56:14;;;;;;;346.07;13.10;;;;;0.20;92356.00;;;;7383934;19;20615;-77
2023/12/01 11:58:41;;;;;;;229.43;14.93;;;;;0.30;92357.00;;;;7384224;19;20161;-75
2023/12/01 12:01:17;;;;;;;144.73;12.83;;;;;0.20;92364.00;;;;7386383;19;20132;-76
2023/12/01 12:03:55;;;;;;;217.03;13.97;;;;;0.20;92366.00;;;;7386548;19;20150;-75
2023/12/01 12:06:32;;;;;;;422.63;19.50;;;;;0.30;92360.00;;;;7386823;19;20648;-76
2023/12/01 12:09:10;;;;;;;350.13;18.53;;;;;0.00;92364.00;;;;7387096;19;20285;-76
2023/12/01 12:11:52;;;;;;;138.93;14.00;;;;;0.10;92368.00;;;;7383375;19;20583;-76
2023/12/01 12:14:26;;;;;;;264.73;13.87;;;;;0.10;92375.00;;;;7386706;19;20137;-77
2023/12/01 12:17:00;;;;;;;256.53;15.97;;;;;0.10;92373.00;;;;7386633;19;20136;-73
2023/12/01 12:19:38;;;;;;;232.47;15.63;;;;;0.20;92383.00;;;;7385391;19;20135;-76
2023/12/01 12:22:22;;;;;;;393.67;20.70;;;;;0.40;92402.00;;;;7384575;19;20169;-76
2023/12/01 12:24:51;;;;;;;217.73;16.43;;;;;0.30;92399.00;;;;7391200;19;20601;-77
2023/12/01 12:27:35;;;;;;;65.67;10.13;;;;;0.20;92415.00;;;;7389208;19;20181;-76
2023/12/01 12:30:11;;;;;;;128.97;10.13;;;;;0.20;92411.00;;;;7391070;19;20153;-76
2023/12/01 12:32:38;;;;;;;170.57;12.23;;;;;0.30;92408.00;;;;7391376;19;20133;-77
2023/12/01 12:35:14;;;;;;;78.83;8.70;;;;;0.20;92394.00;;;;7391845;19;20124;-77
2023/12/01 12:37:42;;;;;;;65.03;8.43;;;;;0.20;92397.00;;;;7391640;19;20141;-79
2023/12/01 12:40:16;;;;;;;34.87;8.63;;;;;0.10;92392.00;;;;7391253;19;20143;-74